createdAt,value
2018-08-18T00:02:10.549Z,4.50
2018-08-18T00:07:14.214Z,5.50
2018-08-18T00:12:22.961Z,5.00
2018-08-18T00:17:26.546Z,5.20
2018-08-18T00:22:30.706Z,5.25
2018-08-18T00:27:34.342Z,5.00
2018-08-18T00:32:37.918Z,5.00
2018-08-18T00:37:41.705Z,5.25
2018-08-18T00:42:45.321Z,4.75
2018-08-18T00:47:49.024Z,4.60
2018-08-18T00:52:52.656Z,4.20
2018-08-18T00:57:56.261Z,4.50
2018-08-18T01:03:00.682Z,4.20
2018-08-18T01:08:04.366Z,4.25
2018-08-18T01:13:08.106Z,5.00
2018-08-18T01:18:11.805Z,5.00
2018-08-18T01:23:15.397Z,6.00
2018-08-18T01:28:19.042Z,5.60
2018-08-18T01:33:22.648Z,5.40
2018-08-18T01:38:26.226Z,5.00
2018-08-18T01:43:29.831Z,6.20
2018-08-18T01:48:34.406Z,3.80
2018-08-18T01:53:38.575Z,7.00
2018-08-18T01:58:42.318Z,6.25
2018-08-18T02:03:45.921Z,6.00
2018-08-18T02:08:59.453Z,6.25
2018-08-18T02:14:03.086Z,5.50
2018-08-18T02:19:06.737Z,4.80
2018-08-18T02:24:10.374Z,4.50
2018-08-18T02:29:14.006Z,4.20
2018-08-18T02:34:17.580Z,5.00
2018-08-18T02:39:21.198Z,4.25
2018-08-18T02:44:24.890Z,4.60
2018-08-18T02:49:31.283Z,4.60
2018-08-18T02:54:39.052Z,4.60
2018-08-18T02:59:42.637Z,4.75
2018-08-18T03:04:48.480Z,7.00
2018-08-18T03:09:52.294Z,4.75
2018-08-18T03:14:55.904Z,5.20
2018-08-18T03:19:59.457Z,5.25
2018-08-18T03:25:03.643Z,5.00
2018-08-18T03:30:08.258Z,5.00
2018-08-18T03:35:11.968Z,4.00
2018-08-18T03:40:15.613Z,4.00
2018-08-18T03:45:19.762Z,6.00
2018-08-18T03:50:24.209Z,5.20
2018-08-18T03:55:38.761Z,4.75
2018-08-18T04:00:43.141Z,4.50
2018-08-18T04:05:47.560Z,4.25
2018-08-18T04:10:51.461Z,3.75
2018-08-18T04:15:55.176Z,5.50
2018-08-18T04:20:58.827Z,5.00
2018-08-18T04:26:02.808Z,4.50
2018-08-18T04:31:07.952Z,3.40
2018-08-18T04:36:11.622Z,4.40
2018-08-18T04:41:15.377Z,3.75
2018-08-18T04:46:19.318Z,3.75
2018-08-18T04:51:23.790Z,4.25
2018-08-18T04:56:27.572Z,5.00
2018-08-18T05:01:31.465Z,4.00
2018-08-18T05:06:36.274Z,3.25
2018-08-18T05:11:40.156Z,3.75
2018-08-18T05:16:43.789Z,3.80
2018-08-18T05:21:47.513Z,4.00
2018-08-18T05:26:51.946Z,4.00
2018-08-18T05:31:55.647Z,6.40
2018-08-18T05:36:59.778Z,5.00
2018-08-18T05:42:03.588Z,4.80
2018-08-18T05:47:07.513Z,4.50
2018-08-18T05:52:11.339Z,4.50
2018-08-18T05:57:14.949Z,4.75
2018-08-18T06:02:19.043Z,5.60
2018-08-18T06:07:23.302Z,4.20
2018-08-18T06:12:27.414Z,5.50
2018-08-18T06:17:32.529Z,4.50
2018-08-18T06:22:40.234Z,3.50
2018-08-18T06:27:44.506Z,4.20
2018-08-18T06:32:48.257Z,6.25
2018-08-18T06:37:59.434Z,6.00
2018-08-18T06:43:03.458Z,4.00
2018-08-18T06:48:18.071Z,5.00
2018-08-18T06:53:21.872Z,3.80
2018-08-18T06:58:25.587Z,4.25
2018-08-18T07:03:34.397Z,6.75
2018-08-18T07:08:43.174Z,5.00
2018-08-18T07:13:47.525Z,5.00
2018-08-18T07:18:51.317Z,4.50
2018-08-18T07:23:55.155Z,5.20
2018-08-18T07:28:59.105Z,5.20
2018-08-18T07:34:02.814Z,5.40
2018-08-18T07:39:08.008Z,4.75
2018-08-18T07:44:11.645Z,4.25
2018-08-18T07:49:15.391Z,4.50
2018-08-18T07:54:19.045Z,5.75
2018-08-18T07:59:22.863Z,6.00
2018-08-18T08:04:27.545Z,3.75
2018-08-18T08:09:31.271Z,4.00
2018-08-18T08:14:34.924Z,3.20
2018-08-18T08:19:38.630Z,4.00
2018-08-18T08:24:43.172Z,4.25
2018-08-18T08:29:47.566Z,4.20
2018-08-18T08:34:51.398Z,3.20
2018-08-18T08:39:55.268Z,3.20
2018-08-18T08:44:59.143Z,4.40
2018-08-18T08:50:02.933Z,4.40
2018-08-18T08:55:06.861Z,2.75
2018-08-18T09:00:11.442Z,3.20
2018-08-18T09:05:15.184Z,3.00
2018-08-18T09:10:19.195Z,3.00
2018-08-18T09:15:22.802Z,3.40
2018-08-18T09:20:27.538Z,2.60
2018-08-18T09:25:32.699Z,3.50
2018-08-18T09:30:36.414Z,4.00
2018-08-18T09:35:55.075Z,4.00
2018-08-18T09:40:58.779Z,4.20
2018-08-18T09:46:02.423Z,3.75
2018-08-18T09:51:06.045Z,3.40
2018-08-18T09:56:09.796Z,4.00
2018-08-18T10:01:13.451Z,5.20
2018-08-18T10:06:17.111Z,2.50
2018-08-18T10:11:20.771Z,7.00
2018-08-18T10:16:24.838Z,6.40
2018-08-18T10:21:28.558Z,12.00
2018-08-18T10:26:32.277Z,32.00
2018-08-18T10:31:39.253Z,15.00
2018-08-18T10:36:44.407Z,10.50
2018-08-18T10:41:59.234Z,8.50
2018-08-18T10:47:10.775Z,6.00
2018-08-18T10:52:26.165Z,7.80
2018-08-18T10:57:41.442Z,9.00
2018-08-18T11:02:50.711Z,8.75
2018-08-18T11:08:00.326Z,7.75
2018-08-18T11:13:04.390Z,6.60
2018-08-18T11:18:09.838Z,7.75
2018-08-18T11:23:15.331Z,8.75
2018-08-18T11:28:19.714Z,6.40
2018-08-18T11:33:38.916Z,7.50
2018-08-18T11:38:42.673Z,7.20
2018-08-18T11:43:49.255Z,7.75
2018-08-18T11:48:52.953Z,8.25
2018-08-18T11:54:01.250Z,6.00
2018-08-18T11:59:14.010Z,6.75
2018-08-18T12:04:18.325Z,6.00
2018-08-18T12:09:22.055Z,6.75
2018-08-18T12:14:25.722Z,5.00
2018-08-18T12:19:29.545Z,6.00
2018-08-18T12:24:33.216Z,6.00
2018-08-18T12:29:36.996Z,7.00
2018-08-18T12:34:40.735Z,7.00
2018-08-18T12:39:44.439Z,5.50
2018-08-18T12:44:49.049Z,6.00
2018-08-18T12:49:53.800Z,5.50
2018-08-18T12:54:57.434Z,5.75
2018-08-18T13:00:01.259Z,6.00
2018-08-18T13:05:05.143Z,5.25
2018-08-18T13:10:23.641Z,5.60
2018-08-18T13:15:27.407Z,5.80
2018-08-18T13:20:31.057Z,7.75
2018-08-18T13:25:34.777Z,6.40
2018-08-18T13:30:38.423Z,5.20
2018-08-18T13:35:42.107Z,4.80
2018-08-18T13:40:45.722Z,6.40
2018-08-18T13:45:49.486Z,5.80
2018-08-18T13:50:53.118Z,6.50
2018-08-18T13:55:56.864Z,5.80
2018-08-18T14:01:00.657Z,5.60
2018-08-18T14:06:04.332Z,5.25
2018-08-18T14:11:08.286Z,6.00
2018-08-18T14:16:12.081Z,6.75
2018-08-18T14:21:15.780Z,5.60
2018-08-18T14:26:19.474Z,5.80
2018-08-18T14:31:23.199Z,6.00
2018-08-18T14:36:26.882Z,5.60
2018-08-18T14:41:39.414Z,5.80
2018-08-18T14:46:43.303Z,5.75
2018-08-18T14:51:46.854Z,6.00
2018-08-18T14:56:50.661Z,5.00
2018-08-18T15:01:54.433Z,5.80
2018-08-18T15:06:58.151Z,5.00
2018-08-18T15:12:02.614Z,4.20
2018-08-18T15:17:06.319Z,5.60
2018-08-18T15:22:12.572Z,5.00
2018-08-18T15:27:16.254Z,5.50
2018-08-18T15:32:19.955Z,5.20
2018-08-18T15:37:23.638Z,5.40
2018-08-18T15:42:27.365Z,5.25
2018-08-18T15:47:31.745Z,5.00
2018-08-18T15:52:35.878Z,4.75
2018-08-18T15:57:39.569Z,4.80
2018-08-18T16:02:43.195Z,5.75
2018-08-18T16:07:46.865Z,5.00
2018-08-18T16:12:51.259Z,4.40
2018-08-18T16:17:55.222Z,4.60
2018-08-18T16:22:59.503Z,5.60
2018-08-18T16:28:05.286Z,5.00
2018-08-18T16:33:17.325Z,5.00
2018-08-18T16:38:20.976Z,3.20
2018-08-18T16:43:24.667Z,3.60
2018-08-18T16:48:28.286Z,4.00
2018-08-18T16:53:32.065Z,5.20
2018-08-18T16:58:35.751Z,5.25
2018-08-18T17:03:39.525Z,5.50
2018-08-18T17:08:43.220Z,5.25
2018-08-18T17:13:47.082Z,5.00
2018-08-18T17:18:50.816Z,4.80
2018-08-18T17:23:54.534Z,5.00
2018-08-18T17:28:58.232Z,4.00
2018-08-18T17:34:01.886Z,4.60
2018-08-18T17:39:07.147Z,4.50
2018-08-18T17:44:10.842Z,4.60
2018-08-18T17:49:14.614Z,4.00
2018-08-18T17:54:18.376Z,5.50
2018-08-18T17:59:22.249Z,4.40
2018-08-18T18:04:27.452Z,3.75
2018-08-18T18:09:32.687Z,4.60
2018-08-18T18:14:36.538Z,4.25
2018-08-18T18:19:40.191Z,4.50
2018-08-18T18:24:44.560Z,5.00
2018-08-18T18:29:48.224Z,8.75
2018-08-18T18:34:51.932Z,9.40
2018-08-18T18:40:02.950Z,6.60
2018-08-18T18:45:10.546Z,6.33
2018-08-18T18:50:16.484Z,6.80
2018-08-18T18:55:20.229Z,7.20
2018-08-18T19:00:23.859Z,8.00
2018-08-18T19:05:28.770Z,6.60
2018-08-18T19:10:32.434Z,7.80
2018-08-18T19:15:36.128Z,7.50
2018-08-18T19:20:39.768Z,8.40
2018-08-18T19:25:44.475Z,8.50
2018-08-18T19:30:48.288Z,7.50
2018-08-18T19:35:53.401Z,8.50
2018-08-18T19:40:57.135Z,7.50
2018-08-18T19:46:00.826Z,8.00
2018-08-18T19:51:05.181Z,7.40
2018-08-18T19:56:10.865Z,7.20
2018-08-18T20:01:14.548Z,10.40
2018-08-18T20:06:21.193Z,10.20
2018-08-18T20:11:24.833Z,11.50
2018-08-18T20:16:28.501Z,11.00
2018-08-18T20:21:32.243Z,12.00
2018-08-18T20:26:35.925Z,11.60
2018-08-18T20:31:52.749Z,11.20
2018-08-18T20:36:56.640Z,13.00
2018-08-18T20:42:00.333Z,13.00
2018-08-18T20:47:03.988Z,11.50
2018-08-18T20:52:07.941Z,11.50
2018-08-18T20:57:12.323Z,12.75
2018-08-18T21:02:16.670Z,12.25
2018-08-18T21:07:20.546Z,14.00
2018-08-18T21:12:32.985Z,15.25
2018-08-18T21:17:36.746Z,13.00
2018-08-18T21:22:40.505Z,12.80
2018-08-18T21:27:44.213Z,13.25
2018-08-18T21:32:48.097Z,13.00
2018-08-18T21:37:51.977Z,15.00
2018-08-18T21:42:55.794Z,13.20
2018-08-18T21:47:59.547Z,12.00
2018-08-18T21:53:03.445Z,12.75
2018-08-18T21:58:07.070Z,13.25
2018-08-18T22:03:10.787Z,12.20
2018-08-18T22:08:14.432Z,14.50
2018-08-18T22:13:18.125Z,13.60
2018-08-18T22:18:21.825Z,13.80
2018-08-18T22:23:25.511Z,13.00
2018-08-18T22:28:29.168Z,13.50
2018-08-18T22:33:36.966Z,14.60
2018-08-18T22:38:40.674Z,14.50
2018-08-18T22:43:44.521Z,14.50
2018-08-18T22:48:48.286Z,14.75
2018-08-18T22:53:53.268Z,14.00
2018-08-18T22:59:03.401Z,14.00
2018-08-18T23:04:24.159Z,15.20
2018-08-18T23:09:29.572Z,16.80
2018-08-18T23:14:35.202Z,14.25
2018-08-18T23:19:38.909Z,14.80
2018-08-18T23:24:42.534Z,15.75
2018-08-18T23:29:46.226Z,15.20
2018-08-18T23:34:52.451Z,13.20
2018-08-18T23:39:57.059Z,13.20
2018-08-18T23:45:04.453Z,14.60
2018-08-18T23:50:08.186Z,14.00
2018-08-18T23:55:11.979Z,15.60
